Flight Briefing for CPX331

Departure Arrival
Ted Stevens Anchorage International Airport (PANC)
Click to view FAA NOTAMS
Chicago/Rockford International Airport (KRFD)
Click to view FAA NOTAMS
Departure Time Arrival Time
N/A N/A
Aircraft Distance
B767-300BDSF 2428nm
Departure METAR Arrival METAR
PANC 180453Z 16010G18KT 7SM -RASN FEW015 BKN024 OVC040 03/M01 A2981 RMK AO2 RAB30 SLP096 P0001 T00281006 KRFD 180454Z 35010KT 3SM -SN BR OVC050 M07/M09 A3000 RMK AO2 SLP170 P0000 T10671089
Suggested Route
TED YESKA NCA13 YQD VBI J538 DLL JVL


View recent IFR Routes data
Notes



Charts and Procedures

Charts for PANC
No chart available
Charts for KRFD
No chart available

Ventusky Weather